createdAt,value
2023-05-21T00:01:45.573Z,83.83
2023-05-21T00:06:04.107Z,83.91
2023-05-21T00:10:22.089Z,83.61
2023-05-21T00:14:42.124Z,83.42
2023-05-21T00:19:00.040Z,83.20
2023-05-21T00:23:18.906Z,82.85
2023-05-21T00:27:38.004Z,82.84
2023-05-21T00:31:58.600Z,82.81
2023-05-21T00:36:17.138Z,82.72
2023-05-21T00:40:37.703Z,82.64
2023-05-21T00:44:55.798Z,82.54
2023-05-21T00:49:15.160Z,82.24
2023-05-21T00:53:36.103Z,82.14
2023-05-21T00:57:54.976Z,81.98
2023-05-21T01:02:14.452Z,81.61
2023-05-21T01:06:35.526Z,81.57
2023-05-21T01:10:55.661Z,81.93
2023-05-21T01:15:15.082Z,81.93
2023-05-21T01:19:37.512Z,81.84
2023-05-21T01:23:55.901Z,81.87
2023-05-21T01:28:15.420Z,81.58
2023-05-21T01:32:56.884Z,81.63
2023-05-21T01:37:33.599Z,81.52
2023-05-21T01:41:55.449Z,81.28
2023-05-21T01:46:17.928Z,81.57
2023-05-21T01:50:41.419Z,80.96
2023-05-21T01:55:00.410Z,80.98
2023-05-21T01:59:20.053Z,81.08
2023-05-21T02:03:38.716Z,81.03
2023-05-21T02:07:57.344Z,80.71
2023-05-21T02:12:15.031Z,80.42
2023-05-21T02:16:33.668Z,80.07
2023-05-21T02:20:51.341Z,79.73
2023-05-21T02:25:11.446Z,79.22
2023-05-21T02:29:30.472Z,78.88
2023-05-21T02:33:49.139Z,78.68
2023-05-21T02:38:09.361Z,78.44
2023-05-21T02:42:27.463Z,78.28
2023-05-21T02:46:45.488Z,78.29
2023-05-21T02:51:05.359Z,78.00
2023-05-21T02:55:23.698Z,78.14
2023-05-21T02:59:41.198Z,77.99
2023-05-21T03:03:59.759Z,78.09
2023-05-21T03:08:17.929Z,78.23
2023-05-21T03:12:35.451Z,77.98
2023-05-21T03:16:53.540Z,77.76
2023-05-21T03:21:13.844Z,77.53
2023-05-21T03:25:33.360Z,77.29
2023-05-21T03:29:52.098Z,76.84
2023-05-21T03:34:09.948Z,76.48
2023-05-21T03:38:27.532Z,76.67
2023-05-21T03:42:45.573Z,76.49
2023-05-21T03:47:03.115Z,76.22
2023-05-21T03:51:22.305Z,76.55
2023-05-21T03:55:41.478Z,76.97
2023-05-21T04:00:02.874Z,77.17
2023-05-21T04:04:21.523Z,77.09
2023-05-21T04:08:40.374Z,76.74
2023-05-21T04:12:58.470Z,76.38
2023-05-21T04:17:15.989Z,76.59
2023-05-21T04:21:35.124Z,76.02
2023-05-21T04:25:53.692Z,75.57
2023-05-21T04:30:12.097Z,74.73
2023-05-21T04:34:31.021Z,74.59
2023-05-21T04:38:49.181Z,73.77
2023-05-21T04:43:06.639Z,73.96
2023-05-21T04:47:25.606Z,72.78
2023-05-21T04:51:43.831Z,73.38
2023-05-21T04:56:01.736Z,74.25
2023-05-21T05:00:19.914Z,74.20
2023-05-21T05:04:39.413Z,74.28
2023-05-21T05:08:57.778Z,74.23
2023-05-21T05:13:15.349Z,73.96
2023-05-21T05:17:36.231Z,72.64
2023-05-21T05:21:55.658Z,70.64
2023-05-21T05:26:13.214Z,69.45
2023-05-21T05:30:32.225Z,68.36
2023-05-21T05:34:50.056Z,67.28
2023-05-21T05:39:08.184Z,66.56
2023-05-21T05:43:26.603Z,65.84
2023-05-21T05:47:45.618Z,65.91
2023-05-21T05:52:05.707Z,66.62
2023-05-21T05:56:23.775Z,64.38
2023-05-21T06:00:41.665Z,63.77
2023-05-21T06:04:59.457Z,65.00
2023-05-21T06:09:17.037Z,64.43
2023-05-21T06:13:35.032Z,63.53
2023-05-21T06:17:52.639Z,61.87
2023-05-21T06:22:10.723Z,62.05
2023-05-21T06:26:30.068Z,61.84
2023-05-21T06:30:49.487Z,61.97
2023-05-21T06:35:07.437Z,60.04
2023-05-21T06:39:25.656Z,59.80
2023-05-21T06:43:43.226Z,59.26
2023-05-21T06:48:01.991Z,59.62
2023-05-21T06:52:20.084Z,60.18
2023-05-21T06:56:37.702Z,57.59
2023-05-21T07:00:55.302Z,59.08
2023-05-21T07:05:13.367Z,59.75
2023-05-21T07:09:31.292Z,56.66
2023-05-21T07:13:49.168Z,60.08
2023-05-21T07:18:08.270Z,60.79
2023-05-21T07:22:27.954Z,60.31
2023-05-21T07:26:48.066Z,60.72
2023-05-21T07:31:06.068Z,60.27
2023-05-21T07:35:24.322Z,57.13
2023-05-21T07:39:42.370Z,60.04
2023-05-21T07:44:01.880Z,58.71
2023-05-21T07:48:23.685Z,57.28
2023-05-21T07:52:41.321Z,56.21
2023-05-21T07:56:59.951Z,57.92
2023-05-21T08:01:17.540Z,58.02
2023-05-21T08:05:35.753Z,55.26
2023-05-21T08:09:54.870Z,55.09
2023-05-21T08:14:12.466Z,55.41
2023-05-21T08:18:30.687Z,53.85
2023-05-21T08:22:48.553Z,54.32
2023-05-21T08:27:06.252Z,54.98
2023-05-21T08:31:24.043Z,54.59
2023-05-21T08:35:41.802Z,54.28
2023-05-21T08:39:59.909Z,54.33
2023-05-21T08:44:22.913Z,53.88
2023-05-21T08:48:40.922Z,52.47
2023-05-21T08:53:00.568Z,50.27
2023-05-21T08:57:21.329Z,49.27
2023-05-21T09:01:42.863Z,46.79
2023-05-21T09:06:00.891Z,49.17
2023-05-21T09:10:22.628Z,46.86
2023-05-21T09:14:42.652Z,44.64
2023-05-21T09:19:03.010Z,44.46
2023-05-21T09:23:22.807Z,45.42
2023-05-21T09:27:41.545Z,45.19
2023-05-21T09:32:05.990Z,45.28
2023-05-21T09:36:25.778Z,42.46
2023-05-21T09:40:48.850Z,42.40
2023-05-21T09:45:11.349Z,42.36
2023-05-21T09:49:29.880Z,40.87
2023-05-21T09:53:55.920Z,42.03
2023-05-21T09:58:14.672Z,37.90
2023-05-21T10:02:34.143Z,38.84
2023-05-21T10:06:53.033Z,38.77
2023-05-21T10:11:13.037Z,40.28
2023-05-21T10:15:38.884Z,40.13
2023-05-21T10:19:58.182Z,38.90
2023-05-21T10:24:17.085Z,37.85
2023-05-21T10:28:39.239Z,38.02
2023-05-21T10:32:58.220Z,36.87
2023-05-21T10:37:17.391Z,36.39
2023-05-21T10:41:53.754Z,35.36
2023-05-21T10:46:54.866Z,33.93
2023-05-21T10:51:26.845Z,32.97
2023-05-21T10:56:29.635Z,34.02
2023-05-21T11:00:47.849Z,34.39
2023-05-21T11:05:08.203Z,35.86
2023-05-21T11:09:27.848Z,32.92
2023-05-21T11:13:50.685Z,31.04
2023-05-21T11:18:10.375Z,29.86
2023-05-21T11:22:28.441Z,29.52
2023-05-21T11:26:49.066Z,30.19
2023-05-21T11:31:27.820Z,30.12
2023-05-21T11:35:46.496Z,26.64
2023-05-21T11:40:26.439Z,26.38
2023-05-21T11:44:48.734Z,25.90
2023-05-21T11:49:06.938Z,25.38
2023-05-21T11:53:30.656Z,23.83
2023-05-21T11:57:54.262Z,22.90
2023-05-21T12:02:17.146Z,22.89
2023-05-21T12:06:34.877Z,21.62
2023-05-21T12:11:00.564Z,22.58
2023-05-21T12:15:18.649Z,21.47
2023-05-21T12:19:38.048Z,22.12
2023-05-21T12:23:56.519Z,20.26
2023-05-21T12:28:14.370Z,22.52
2023-05-21T12:32:33.336Z,21.09
2023-05-21T12:36:52.755Z,19.45
2023-05-21T12:41:13.754Z,20.02
2023-05-21T12:45:33.158Z,17.77
2023-05-21T12:49:59.637Z,19.72
2023-05-21T12:54:18.300Z,18.16
2023-05-21T12:58:35.870Z,20.74
2023-05-21T13:02:54.611Z,16.93
2023-05-21T13:07:12.203Z,18.61
2023-05-21T13:11:30.092Z,18.22
2023-05-21T13:15:47.803Z,17.57
2023-05-21T13:20:13.430Z,21.12
2023-05-21T13:24:31.555Z,26.87
2023-05-21T13:28:49.152Z,21.69
2023-05-21T13:33:08.613Z,18.97
2023-05-21T13:37:26.358Z,19.72
2023-05-21T13:41:44.748Z,17.60
2023-05-21T13:46:03.156Z,17.67
2023-05-21T13:50:21.226Z,18.89
2023-05-21T13:54:38.806Z,18.50
2023-05-21T13:58:56.668Z,17.07
2023-05-21T14:03:13.657Z,16.39
2023-05-21T14:07:32.707Z,16.34
2023-05-21T14:11:51.048Z,18.17
2023-05-21T14:16:09.154Z,18.22
2023-05-21T14:20:26.720Z,18.69
2023-05-21T14:24:45.829Z,19.61
2023-05-21T14:29:03.412Z,17.69
2023-05-21T14:33:22.013Z,17.62
2023-05-21T14:37:39.763Z,19.06
2023-05-21T14:41:59.210Z,19.81
2023-05-21T14:46:16.986Z,20.64
2023-05-21T14:50:36.709Z,20.75
2023-05-21T14:54:54.678Z,18.64
2023-05-21T14:59:13.136Z,21.46
2023-05-21T15:03:31.102Z,23.16
2023-05-21T15:07:48.997Z,22.70
2023-05-21T15:12:07.660Z,21.48
2023-05-21T15:16:25.447Z,21.47
2023-05-21T15:20:43.408Z,20.64
2023-05-21T15:25:01.759Z,20.66
2023-05-21T15:29:20.890Z,22.39
2023-05-21T15:33:38.623Z,19.34
2023-05-21T15:37:56.267Z,19.97
2023-05-21T15:42:15.191Z,20.25
2023-05-21T15:46:33.166Z,17.88
2023-05-21T15:50:50.938Z,17.93
2023-05-21T15:55:09.455Z,20.23
2023-05-21T15:59:28.448Z,19.97
2023-05-21T16:03:46.786Z,19.83
2023-05-21T16:08:05.440Z,19.41
2023-05-21T16:12:23.309Z,20.47
2023-05-21T16:16:41.698Z,20.13
2023-05-21T16:21:00.257Z,22.26
2023-05-21T16:25:20.587Z,24.66
2023-05-21T16:29:40.988Z,23.89
2023-05-21T16:33:58.785Z,24.41
2023-05-21T16:38:17.298Z,26.08
2023-05-21T16:42:40.055Z,29.89
2023-05-21T16:46:58.264Z,32.87
2023-05-21T16:51:16.650Z,34.13
2023-05-21T16:55:36.610Z,35.14
2023-05-21T16:59:54.468Z,33.58
2023-05-21T17:04:12.434Z,32.94
2023-05-21T17:08:30.916Z,31.46
2023-05-21T17:12:48.673Z,31.94
2023-05-21T17:17:10.557Z,32.24
2023-05-21T17:21:28.144Z,35.09
2023-05-21T17:25:46.594Z,36.86
2023-05-21T17:30:10.248Z,39.34
2023-05-21T17:34:35.822Z,42.72
2023-05-21T17:38:54.899Z,47.47
2023-05-21T17:43:12.838Z,50.77
2023-05-21T17:47:31.173Z,54.07
2023-05-21T17:51:50.952Z,55.59
2023-05-21T17:56:11.599Z,57.32
2023-05-21T18:00:35.446Z,58.27
2023-05-21T18:04:53.379Z,59.60
2023-05-21T18:09:14.445Z,61.00
2023-05-21T18:13:35.593Z,62.57
2023-05-21T18:17:55.993Z,63.21
2023-05-21T18:22:14.472Z,65.23
2023-05-21T18:26:32.182Z,66.69
2023-05-21T18:30:50.091Z,67.81
2023-05-21T18:35:12.412Z,68.86
2023-05-21T18:39:32.254Z,69.46
2023-05-21T18:43:52.963Z,68.21
2023-05-21T18:48:12.059Z,67.73
2023-05-21T18:52:41.840Z,67.07
2023-05-21T18:57:00.993Z,67.32
2023-05-21T19:01:18.713Z,67.13
2023-05-21T19:05:38.285Z,68.03
2023-05-21T19:09:56.442Z,67.81
2023-05-21T19:14:13.996Z,68.60
2023-05-21T19:18:33.027Z,69.23
2023-05-21T19:22:51.256Z,69.52
2023-05-21T19:27:12.720Z,70.34
2023-05-21T19:31:34.832Z,69.99
2023-05-21T19:35:53.546Z,70.22
2023-05-21T19:40:12.164Z,70.57
2023-05-21T19:44:30.549Z,69.34
2023-05-21T19:48:49.154Z,70.00
2023-05-21T19:53:08.464Z,70.19
2023-05-21T19:57:26.544Z,70.19
2023-05-21T20:01:45.702Z,70.35
2023-05-21T20:06:03.925Z,70.16
2023-05-21T20:10:22.025Z,69.72
2023-05-21T20:14:39.464Z,70.23
2023-05-21T20:18:58.563Z,70.11
2023-05-21T20:23:16.941Z,70.30
2023-05-21T20:27:39.103Z,70.62
2023-05-21T20:31:57.029Z,71.05
2023-05-21T20:36:15.525Z,71.69
2023-05-21T20:40:33.163Z,72.44
2023-05-21T20:44:53.066Z,72.55
2023-05-21T20:49:10.762Z,73.09
2023-05-21T20:53:28.462Z,73.40
2023-05-21T20:57:46.477Z,73.89
2023-05-21T21:02:06.160Z,74.06
2023-05-21T21:06:26.264Z,74.48
2023-05-21T21:10:48.516Z,74.46
2023-05-21T21:15:07.986Z,73.68
2023-05-21T21:19:26.148Z,72.92
2023-05-21T21:23:43.925Z,72.98
2023-05-21T21:28:02.359Z,72.58
2023-05-21T21:32:20.581Z,72.45
2023-05-21T21:36:39.951Z,72.42
2023-05-21T21:40:57.569Z,72.25
2023-05-21T21:45:16.884Z,72.34
2023-05-21T21:49:34.596Z,72.21
2023-05-21T21:53:52.981Z,72.55
2023-05-21T21:58:11.260Z,72.64
2023-05-21T22:02:28.817Z,72.28
2023-05-21T22:06:47.420Z,72.47
2023-05-21T22:11:06.771Z,72.10
2023-05-21T22:15:26.314Z,72.01
2023-05-21T22:19:44.257Z,72.08
2023-05-21T22:24:02.530Z,72.88
2023-05-21T22:28:23.350Z,73.11
2023-05-21T22:32:41.232Z,73.35
2023-05-21T22:36:59.438Z,72.88
2023-05-21T22:41:17.152Z,72.78
2023-05-21T22:45:37.313Z,73.25
2023-05-21T22:49:56.092Z,73.67
2023-05-21T22:54:14.994Z,74.13
2023-05-21T22:58:32.596Z,74.36
2023-05-21T23:02:53.846Z,74.92
2023-05-21T23:07:13.147Z,75.08
2023-05-21T23:11:31.171Z,75.74
2023-05-21T23:15:48.892Z,76.32
2023-05-21T23:20:11.463Z,76.84
2023-05-21T23:24:30.882Z,77.59
2023-05-21T23:28:48.895Z,78.23
2023-05-21T23:33:08.535Z,78.67
2023-05-21T23:37:27.047Z,79.07
2023-05-21T23:41:45.273Z,79.47
2023-05-21T23:46:03.455Z,79.95
2023-05-21T23:50:22.178Z,80.46
2023-05-21T23:54:39.774Z,80.88
2023-05-21T23:58:58.094Z,81.29
